Time;durP1;ratioP1;P1;durP2;ratioP2;P2;SDS_P1;SDS_P2;PMS_P1;PMS_P2;Temp;Humidity;BMP_temperature;BMP_pressure;BME280_temperature;BME280_humidity;BME280_pressure;Samples;Min_cycle;Max_cycle;Signal;HPM_P1;HPM_P2
2021/04/08 00:00:51;;;;;;;9.30;1.33;;;6.60;99.90;;;;;;2078815;28;20049;-64
2021/04/08 00:01:52;;;;;;;7.90;1.42;;;6.60;99.90;;;;;;2078023;28;20139;-64
2021/04/08 00:02:53;;;;;;;5.95;1.38;;;6.60;99.90;;;;;;2081396;28;20071;-64
2021/04/08 00:03:53;;;;;;;6.03;1.15;;;6.60;99.90;;;;;;2081891;28;20094;-64
2021/04/08 00:04:54;;;;;;;10.80;1.50;;;6.60;99.90;;;;;;2084175;28;20481;-64
2021/04/08 00:05:55;;;;;;;11.10;1.80;;;6.50;99.90;;;;;;2085940;28;20027;-64
2021/04/08 00:06:56;;;;;;;5.10;1.02;;;6.50;99.90;;;;;;2085864;28;20025;-65
2021/04/08 00:07:56;;;;;;;9.48;1.48;;;6.50;99.90;;;;;;2086626;28;20029;-64
2021/04/08 00:08:57;;;;;;;9.88;1.50;;;6.50;99.90;;;;;;2086650;28;20486;-64
2021/04/08 00:09:58;;;;;;;9.80;1.50;;;6.50;99.90;;;;;;2082951;28;20021;-65
2021/04/08 00:10:58;;;;;;;5.93;1.30;;;6.50;99.90;;;;;;2078721;28;20022;-64
2021/04/08 00:11:59;;;;;;;5.40;1.40;;;6.50;99.90;;;;;;2083272;28;20022;-64
2021/04/08 00:13:00;;;;;;;5.63;1.30;;;6.50;99.90;;;;;;2077853;28;20046;-64
2021/04/08 00:14:00;;;;;;;8.52;1.25;;;6.50;99.90;;;;;;2077851;28;20044;-64
2021/04/08 00:15:04;;;;;;;8.07;1.30;;;6.60;99.90;;;;;;2083546;28;20025;-64
2021/04/08 00:16:05;;;;;;;6.25;1.30;;;6.60;99.90;;;;;;2086499;28;20033;-64
2021/04/08 00:17:06;;;;;;;7.35;1.75;;;6.50;99.90;;;;;;2076624;28;20029;-64
2021/04/08 00:18:07;;;;;;;5.10;1.48;;;6.50;99.90;;;;;;2081389;28;20104;-64
2021/04/08 00:19:09;;;;;;;7.20;1.65;;;6.50;99.90;;;;;;2074701;28;20030;-64
2021/04/08 00:20:19;;;;;;;7.80;1.60;;;6.50;99.90;;;;;;2078589;28;20044;-64
2021/04/08 00:21:20;;;;;;;7.60;1.90;;;6.40;99.90;;;;;;2075426;28;20029;-64
2021/04/08 00:22:20;;;;;;;6.47;1.60;;;6.40;99.90;;;;;;2081302;28;20444;-64
2021/04/08 00:23:21;;;;;;;7.85;1.70;;;6.40;99.90;;;;;;2080894;28;20021;-64
2021/04/08 00:24:22;;;;;;;6.30;1.77;;;6.40;99.90;;;;;;2080847;28;20033;-64
2021/04/08 00:25:23;;;;;;;10.27;2.17;;;6.30;99.90;;;;;;2080672;28;20026;-64
2021/04/08 00:26:24;;;;;;;5.22;1.65;;;6.30;99.90;;;;;;2080952;28;20049;-64
2021/04/08 00:27:24;;;;;;;5.35;1.73;;;6.30;99.90;;;;;;2080655;28;20022;-64
2021/04/08 00:28:25;;;;;;;7.38;1.88;;;6.30;99.90;;;;;;2074222;28;20097;-64
2021/04/08 00:29:25;;;;;;;5.57;1.73;;;6.30;99.90;;;;;;2073181;28;20038;-64
2021/04/08 00:30:26;;;;;;;5.90;1.83;;;6.40;99.90;;;;;;2074346;28;20515;-64
2021/04/08 00:31:27;;;;;;;10.05;2.33;;;6.40;99.90;;;;;;2080774;28;20065;-64
2021/04/08 00:32:28;;;;;;;8.32;2.28;;;6.30;99.90;;;;;;2080666;28;20068;-64
2021/04/08 00:33:28;;;;;;;8.98;2.72;;;6.30;99.90;;;;;;2080743;28;20029;-64
2021/04/08 00:34:29;;;;;;;10.93;2.70;;;6.30;99.90;;;;;;2072410;28;20507;-64
2021/04/08 00:35:30;;;;;;;6.90;2.70;;;6.30;99.90;;;;;;2080725;28;20037;-64
2021/04/08 00:36:30;;;;;;;9.90;3.63;;;6.30;99.90;;;;;;2081631;28;20091;-64
2021/04/08 00:37:31;;;;;;;10.02;3.53;;;6.30;99.90;;;;;;2076510;28;20115;-64
2021/04/08 00:38:32;;;;;;;12.90;3.55;;;6.30;99.90;;;;;;2075332;28;20433;-64
2021/04/08 00:39:32;;;;;;;12.82;3.53;;;6.30;99.90;;;;;;2079845;28;20036;-64
2021/04/08 00:40:34;;;;;;;13.70;4.95;;;6.30;99.90;;;;;;2079567;28;20542;-64
2021/04/08 00:41:35;;;;;;;17.50;5.23;;;6.20;99.90;;;;;;2081219;28;20501;-64
2021/04/08 00:42:35;;;;;;;13.63;5.93;;;6.20;99.90;;;;;;2081191;28;20632;-64
2021/04/08 00:43:36;;;;;;;17.13;6.57;;;6.10;99.90;;;;;;2081254;28;20048;-64
2021/04/08 00:44:37;;;;;;;17.83;6.55;;;6.10;99.90;;;;;;2078777;28;20382;-64
2021/04/08 00:45:38;;;;;;;18.58;6.78;;;6.10;99.90;;;;;;2079535;28;20064;-64
2021/04/08 00:46:38;;;;;;;17.90;7.55;;;6.00;99.90;;;;;;2080805;28;20650;-63
2021/04/08 00:47:39;;;;;;;20.95;8.48;;;6.00;99.90;;;;;;2080487;28;20437;-64
2021/04/08 00:48:40;;;;;;;20.23;8.15;;;6.00;99.90;;;;;;2081361;28;20048;-64
2021/04/08 00:49:40;;;;;;;22.10;8.48;;;5.90;99.90;;;;;;2081227;28;20433;-64
2021/04/08 00:50:41;;;;;;;18.63;7.97;;;5.90;99.90;;;;;;2074440;28;20072;-64
2021/04/08 00:51:42;;;;;;;18.15;6.82;;;5.90;99.90;;;;;;2075034;28;20061;-64
2021/04/08 00:52:47;;;;;;;18.63;7.00;;;5.90;99.90;;;;;;2074575;28;20036;-64
2021/04/08 00:53:48;;;;;;;16.13;6.38;;;5.80;99.90;;;;;;2078390;28;20170;-64
2021/04/08 00:54:49;;;;;;;16.92;5.68;;;5.80;99.90;;;;;;2077778;28;20036;-64
2021/04/08 00:55:53;;;;;;;13.98;6.10;;;5.70;99.90;;;;;;2086171;28;20090;-64
2021/04/08 00:56:54;;;;;;;12.85;5.85;;;5.70;99.90;;;;;;2084463;28;20029;-64
2021/04/08 00:57:55;;;;;;;13.55;5.25;;;5.70;99.90;;;;;;2079398;28;20121;-64
2021/04/08 00:58:57;;;;;;;11.55;4.05;;;5.60;99.90;;;;;;2080157;28;20559;-64
2021/04/08 00:59:59;;;;;;;8.77;4.00;;;5.60;99.90;;;;;;2074691;28;20060;-64
2021/04/08 01:01:00;;;;;;;13.93;4.85;;;5.50;99.90;;;;;;2081253;28;20496;-64
2021/04/08 01:02:00;;;;;;;9.90;3.83;;;5.50;99.90;;;;;;2080394;28;20121;-64
2021/04/08 01:03:02;;;;;;;8.70;4.10;;;5.40;99.90;;;;;;2081175;28;20013;-64
2021/04/08 01:04:02;;;;;;;7.50;3.93;;;5.40;99.90;;;;;;2073619;28;20022;-64
2021/04/08 01:05:04;;;;;;;10.55;3.63;;;5.30;99.90;;;;;;2074608;28;20882;-64
2021/04/08 01:06:05;;;;;;;10.05;4.10;;;5.30;99.90;;;;;;2075188;28;20045;-64
2021/04/08 01:07:05;;;;;;;9.07;3.90;;;5.20;99.90;;;;;;2077419;28;20013;-64
2021/04/08 01:08:07;;;;;;;13.77;4.57;;;5.20;99.90;;;;;;2081354;28;20468;-64
2021/04/08 01:09:08;;;;;;;7.88;4.18;;;5.10;99.90;;;;;;2080961;28;20018;-64
2021/04/08 01:10:11;;;;;;;12.95;4.85;;;5.10;99.90;;;;;;2075661;28;20026;-64
2021/04/08 01:11:11;;;;;;;10.48;4.47;;;5.10;99.90;;;;;;2072672;28;20022;-65
2021/04/08 01:12:12;;;;;;;8.20;3.80;;;5.10;99.90;;;;;;2079422;28;20520;-64
2021/04/08 01:13:16;;;;;;;6.50;3.50;;;5.10;99.90;;;;;;2081171;28;20036;-64
2021/04/08 01:14:17;;;;;;;8.27;3.60;;;5.10;99.90;;;;;;2080091;28;20056;-64
2021/04/08 01:15:18;;;;;;;12.77;3.42;;;5.00;99.90;;;;;;2080208;28;20033;-64
2021/04/08 01:16:36;;;;;;;11.82;3.75;;;5.10;99.90;;;;;;2080253;28;20047;-64
2021/04/08 01:17:47;;;;;;;14.73;3.35;;;5.10;99.90;;;;;;2086078;28;20029;-64
2021/04/08 01:19:09;;;;;;;8.27;3.42;;;5.10;99.90;;;;;;2080274;28;20048;-64
2021/04/08 01:20:48;;;;;;;11.38;3.85;;;5.10;99.90;;;;;;2076858;28;20469;-65
2021/04/08 01:22:13;;;;;;;7.35;3.08;;;5.10;99.90;;;;;;2074824;28;20045;-64
2021/04/08 01:23:48;;;;;;;7.70;3.30;;;5.10;99.90;;;;;;2074190;28;20037;-64
2021/04/08 01:25:00;;;;;;;11.40;3.45;;;5.10;99.90;;;;;;2078705;28;20113;-64
2021/04/08 01:26:39;;;;;;;8.20;3.70;;;5.10;99.90;;;;;;2083900;28;20095;-64
2021/04/08 01:28:07;;;;;;;9.65;4.03;;;5.00;99.90;;;;;;2079356;28;20018;-64
2021/04/08 01:29:14;;;;;;;10.75;3.50;;;5.00;99.90;;;;;;2081297;28;20017;-64
2021/04/08 01:30:17;;;;;;;10.05;3.83;;;4.90;99.90;;;;;;2081646;28;20101;-64
2021/04/08 01:31:19;;;;;;;7.55;3.70;;;4.90;99.90;;;;;;2081176;28;20083;-64
2021/04/08 01:32:21;;;;;;;9.45;3.80;;;4.90;99.90;;;;;;2081383;28;20025;-64
2021/04/08 01:33:33;;;;;;;11.52;3.55;;;4.90;99.90;;;;;;2074297;28;20096;-65
2021/04/08 01:34:39;;;;;;;9.98;3.38;;;4.80;99.90;;;;;;2072902;28;20022;-65
2021/04/08 01:35:41;;;;;;;11.38;3.63;;;4.80;99.90;;;;;;2074372;28;20684;-65
2021/04/08 01:36:44;;;;;;;14.88;3.88;;;4.80;99.90;;;;;;2080140;28;20041;-64
2021/04/08 01:37:51;;;;;;;8.45;3.55;;;4.80;99.90;;;;;;2080087;28;20020;-64
2021/04/08 01:38:59;;;;;;;9.85;3.83;;;4.70;99.90;;;;;;2080828;28;20557;-63
2021/04/08 01:40:03;;;;;;;8.23;3.88;;;4.70;99.90;;;;;;2080968;28;20464;-64
2021/04/08 01:41:05;;;;;;;9.30;3.67;;;4.60;99.90;;;;;;2080563;28;20017;-64
2021/04/08 01:42:06;;;;;;;10.80;5.07;;;4.60;99.90;;;;;;2080993;28;20021;-64
2021/04/08 01:43:08;;;;;;;11.05;3.90;;;4.60;99.90;;;;;;2076547;28;20076;-64
2021/04/08 01:44:15;;;;;;;9.82;3.97;;;4.50;99.90;;;;;;2074247;28;20022;-64
2021/04/08 01:45:20;;;;;;;7.00;3.33;;;4.50;99.90;;;;;;2076265;28;20018;-64
2021/04/08 01:46:22;;;;;;;10.63;3.67;;;4.40;99.90;;;;;;2077686;28;20022;-64
2021/04/08 01:47:26;;;;;;;7.63;3.28;;;4.40;99.90;;;;;;2080507;28;20021;-64
2021/04/08 01:48:28;;;;;;;12.27;3.80;;;4.40;99.90;;;;;;2081002;28;20572;-64
2021/04/08 01:49:33;;;;;;;14.38;4.45;;;4.40;99.90;;;;;;2080548;28;20412;-64
2021/04/08 01:50:34;;;;;;;9.30;4.20;;;4.30;99.90;;;;;;2078650;28;20036;-64
2021/04/08 01:51:36;;;;;;;9.57;3.70;;;4.30;99.90;;;;;;2074019;28;20048;-64
2021/04/08 01:52:41;;;;;;;10.57;3.92;;;4.20;99.90;;;;;;2073501;28;20288;-64
2021/04/08 01:53:47;;;;;;;12.35;4.47;;;4.20;99.90;;;;;;2072758;28;20077;-64
2021/04/08 01:54:52;;;;;;;10.90;4.32;;;4.20;99.90;;;;;;2075609;28;20104;-64
2021/04/08 01:55:57;;;;;;;13.68;4.18;;;4.10;99.90;;;;;;2074474;28;20112;-64
2021/04/08 01:57:04;;;;;;;12.73;4.13;;;4.00;99.90;;;;;;2072888;28;20021;-64
2021/04/08 01:58:06;;;;;;;13.10;5.40;;;4.00;99.90;;;;;;2076457;28;20025;-64
2021/04/08 01:59:07;;;;;;;11.95;4.18;;;3.90;99.90;;;;;;2080218;28;20428;-64
2021/04/08 02:00:11;;;;;;;14.85;4.78;;;3.80;99.90;;;;;;2073229;28;20504;-64
2021/04/08 02:01:12;;;;;;;11.40;4.30;;;3.80;99.90;;;;;;2071258;28;20508;-65
2021/04/08 02:02:13;;;;;;;12.10;4.10;;;3.80;99.90;;;;;;2078011;28;20506;-64
2021/04/08 02:03:15;;;;;;;9.55;3.80;;;3.70;99.90;;;;;;2080030;28;20029;-64
2021/04/08 02:04:17;;;;;;;;;;;3.70;99.90;;;;;;2080834;28;20025;-64
2021/04/08 02:05:18;;;;;;;8.23;3.88;;;3.60;99.90;;;;;;2080021;28;19913;-64
2021/04/08 02:06:23;;;;;;;8.20;3.45;;;3.60;99.90;;;;;;2079459;28;20499;-64
2021/04/08 02:07:26;;;;;;;11.48;4.68;;;3.60;99.90;;;;;;2073504;28;20091;-64
2021/04/08 02:08:29;;;;;;;11.88;4.15;;;3.50;99.90;;;;;;2074265;28;20033;-64
2021/04/08 02:09:31;;;;;;;8.93;3.95;;;3.50;99.90;;;;;;2080709;28;20017;-65
2021/04/08 02:10:33;;;;;;;;;;;3.50;99.90;;;;;;2080808;28;20017;-64
2021/04/08 02:11:36;;;;;;;12.85;4.35;;;3.50;99.90;;;;;;2077771;28;20335;-64
2021/04/08 02:12:40;;;;;;;12.50;4.30;;;3.40;99.90;;;;;;2079255;28;20111;-65
2021/04/08 02:13:44;;;;;;;14.57;4.40;;;3.40;99.90;;;;;;2078326;28;20021;-65
2021/04/08 02:14:46;;;;;;;13.55;4.68;;;3.40;99.90;;;;;;2072647;28;20497;-64
2021/04/08 02:15:49;;;;;;;11.60;3.85;;;3.40;99.90;;;;;;2078024;28;20021;-65
2021/04/08 02:16:50;;;;;;;;;;;3.30;99.90;;;;;;2080429;28;20021;-64
2021/04/08 02:17:56;;;;;;;10.88;3.88;;;3.30;99.90;;;;;;2079897;28;19963;-64
2021/04/08 02:19:00;;;;;;;12.48;4.30;;;3.30;99.90;;;;;;2075318;28;20071;-64
2021/04/08 02:20:12;;;;;;;11.55;4.20;;;3.20;99.90;;;;;;2072431;28;20425;-64
2021/04/08 02:21:13;;;;;;;10.85;4.05;;;3.10;99.90;;;;;;2071675;28;20045;-64
2021/04/08 02:22:14;;;;;;;9.93;3.80;;;3.10;99.90;;;;;;2075081;28;20428;-64
2021/04/08 02:23:24;;;;;;;12.00;3.55;;;3.10;99.90;;;;;;2080096;28;20103;-64
2021/04/08 02:24:25;;;;;;;12.60;3.65;;;3.00;99.90;;;;;;2079770;28;20036;-64
2021/04/08 02:25:30;;;;;;;8.10;3.33;;;3.00;99.90;;;;;;2080015;28;20068;-64
2021/04/08 02:26:31;;;;;;;11.20;4.15;;;3.00;99.90;;;;;;2080650;28;20033;-64
2021/04/08 02:27:36;;;;;;;12.20;4.13;;;2.90;99.90;;;;;;2080321;28;20048;-65
2021/04/08 02:28:38;;;;;;;8.27;3.53;;;2.90;99.90;;;;;;2075205;28;20904;-64
2021/04/08 02:29:39;;;;;;;;;;;2.90;99.90;;;;;;2072905;28;20112;-64
2021/04/08 02:30:47;;;;;;;10.50;3.90;;;2.90;99.90;;;;;;2075048;28;19909;-65
2021/04/08 02:31:50;;;;;;;15.48;3.92;;;2.80;99.90;;;;;;2079503;28;20030;-64
2021/04/08 02:32:51;;;;;;;13.20;4.47;;;2.80;99.90;;;;;;2079725;28;20151;-64
2021/04/08 02:33:53;;;;;;;8.68;3.70;;;2.80;99.90;;;;;;2079537;28;20025;-64
2021/04/08 02:34:53;;;;;;;15.02;4.78;;;2.70;99.90;;;;;;2072277;28;20687;-64
2021/04/08 02:35:56;;;;;;;11.68;3.92;;;2.70;99.90;;;;;;2075965;28;20029;-64
2021/04/08 02:36:57;;;;;;;13.35;4.22;;;2.70;99.90;;;;;;2072441;28;20112;-65
2021/04/08 02:37:57;;;;;;;7.20;3.15;;;2.70;99.90;;;;;;2078434;28;20021;-64
2021/04/08 02:38:58;;;;;;;7.68;3.17;;;2.60;99.90;;;;;;2079796;28;20055;-64
2021/04/08 02:39:59;;;;;;;7.18;3.00;;;2.60;99.90;;;;;;2080665;28;20049;-64
2021/04/08 02:41:03;;;;;;;10.73;3.53;;;2.50;99.90;;;;;;2072265;28;20080;-64
2021/04/08 02:42:05;;;;;;;8.35;3.05;;;2.50;99.90;;;;;;2071595;28;20033;-63
2021/04/08 02:43:05;;;;;;;6.40;3.20;;;2.50;99.90;;;;;;2072118;28;20101;-65
2021/04/08 02:44:06;;;;;;;10.15;3.47;;;2.40;99.90;;;;;;2073833;28;20509;-64
2021/04/08 02:45:08;;;;;;;7.18;3.25;;;2.40;99.90;;;;;;2080016;28;20048;-64
2021/04/08 02:46:09;;;;;;;10.55;4.53;;;2.40;99.90;;;;;;2079829;28;20018;-65
2021/04/08 02:47:09;;;;;;;12.98;3.60;;;2.40;99.90;;;;;;2080345;28;20519;-64
2021/04/08 02:48:15;;;;;;;9.98;2.88;;;2.40;99.90;;;;;;2072447;28;20036;-64
2021/04/08 02:49:16;;;;;;;13.25;3.40;;;2.30;99.90;;;;;;2073411;28;20472;-64
2021/04/08 02:50:16;;;;;;;9.38;3.33;;;2.40;99.90;;;;;;2072499;28;20026;-65
2021/04/08 02:51:25;;;;;;;5.35;2.80;;;2.30;99.90;;;;;;2076097;28;20083;-65
2021/04/08 02:52:39;;;;;;;10.55;3.33;;;2.30;99.90;;;;;;2079970;28;20022;-65
2021/04/08 02:54:08;;;;;;;8.52;2.60;;;2.30;99.90;;;;;;2080049;28;20022;-65
2021/04/08 02:55:22;;;;;;;10.57;3.50;;;2.30;99.90;;;;;;2079850;28;20016;-65
2021/04/08 02:56:23;;;;;;;10.90;2.72;;;2.20;99.90;;;;;;2075666;28;20025;-64
2021/04/08 02:57:59;;;;;;;8.30;3.00;;;2.20;99.90;;;;;;2071845;28;20017;-65
2021/04/08 02:59:09;;;;;;;10.77;2.97;;;2.20;99.90;;;;;;2076829;28;20041;-64
2021/04/08 03:00:11;;;;;;;14.13;3.20;;;2.20;99.90;;;;;;2075907;28;20018;-64
2021/04/08 03:01:19;;;;;;;7.68;3.30;;;2.20;99.90;;;;;;2079810;28;20076;-65
2021/04/08 03:02:23;;;;;;;10.50;3.35;;;2.20;99.90;;;;;;2075380;28;20058;-65
2021/04/08 03:03:33;;;;;;;9.38;3.28;;;2.20;99.90;;;;;;2074268;28;20413;-64
2021/04/08 03:04:41;;;;;;;15.65;3.72;;;2.20;99.90;;;;;;2075062;28;20014;-64
2021/04/08 03:05:46;;;;;;;10.40;3.47;;;2.20;99.90;;;;;;2079236;28;20032;-64
2021/04/08 03:06:51;;;;;;;8.60;3.20;;;2.20;99.90;;;;;;2080334;28;20117;-65
2021/04/08 03:07:55;;;;;;;9.48;3.35;;;2.20;99.90;;;;;;2080588;28;20022;-64
2021/04/08 03:08:58;;;;;;;9.10;3.78;;;2.20;99.90;;;;;;2080391;28;20021;-64
2021/04/08 03:10:07;;;;;;;10.98;3.45;;;2.10;99.90;;;;;;2072340;28;20117;-65
2021/04/08 03:11:10;;;;;;;10.73;3.53;;;2.10;99.90;;;;;;2072344;28;20018;-64
2021/04/08 03:12:14;;;;;;;7.05;3.70;;;2.10;99.90;;;;;;2078034;28;20739;-64
2021/04/08 03:13:17;;;;;;;13.18;3.95;;;2.10;99.90;;;;;;2079834;28;20021;-65
2021/04/08 03:14:20;;;;;;;7.50;3.35;;;2.10;99.90;;;;;;2080520;28;20033;-65
2021/04/08 03:15:30;;;;;;;8.73;3.50;;;2.00;99.90;;;;;;2080398;28;20097;-64
2021/04/08 03:16:40;;;;;;;6.47;3.80;;;2.00;99.90;;;;;;2080300;28;20092;-65
2021/04/08 03:17:45;;;;;;;10.98;3.45;;;2.00;99.90;;;;;;2080034;28;20021;-65
2021/04/08 03:18:49;;;;;;;11.32;4.00;;;2.00;99.90;;;;;;2077090;28;20409;-65
2021/04/08 03:19:52;;;;;;;7.55;3.70;;;2.00;99.90;;;;;;2072033;28;20421;-65
2021/04/08 03:20:54;;;;;;;13.98;3.88;;;2.00;99.90;;;;;;2077862;28;20030;-65
2021/04/08 03:21:57;;;;;;;9.85;3.70;;;2.00;99.90;;;;;;2072771;28;20029;-65
2021/04/08 03:23:02;;;;;;;14.80;4.53;;;2.00;99.90;;;;;;2079862;28;20420;-64
2021/04/08 03:24:04;;;;;;;11.18;4.13;;;2.00;99.90;;;;;;2079625;28;20017;-65
2021/04/08 03:25:06;;;;;;;11.80;4.28;;;2.00;99.90;;;;;;2080584;28;20020;-65
2021/04/08 03:26:08;;;;;;;13.38;4.28;;;2.00;99.90;;;;;;2080202;28;20703;-65
2021/04/08 03:27:10;;;;;;;13.23;4.30;;;1.90;99.90;;;;;;2077316;28;20022;-65
2021/04/08 03:28:13;;;;;;;8.40;3.83;;;1.90;99.90;;;;;;2071826;28;20030;-65
2021/04/08 03:29:15;;;;;;;12.50;3.90;;;1.90;99.90;;;;;;2074159;28;20029;-66
2021/04/08 03:30:17;;;;;;;10.27;3.88;;;1.90;99.90;;;;;;2072343;28;20014;-65
2021/04/08 03:31:19;;;;;;;8.73;4.10;;;1.80;99.90;;;;;;2080102;28;20441;-65
2021/04/08 03:32:21;;;;;;;10.90;3.95;;;1.80;99.90;;;;;;2080405;28;20522;-65
2021/04/08 03:33:22;;;;;;;8.27;3.60;;;1.80;99.90;;;;;;2080202;28;20036;-65
2021/04/08 03:34:23;;;;;;;7.07;3.75;;;1.80;99.90;;;;;;2075700;28;20029;-65
2021/04/08 03:35:25;;;;;;;12.10;3.95;;;1.80;99.90;;;;;;2072138;28;20032;-65
2021/04/08 03:36:27;;;;;;;10.05;3.90;;;1.80;99.90;;;;;;2075343;28;20044;-65
2021/04/08 03:37:27;;;;;;;8.90;3.67;;;1.80;99.90;;;;;;2080178;28;20032;-65
2021/04/08 03:38:29;;;;;;;8.98;3.90;;;1.70;99.90;;;;;;2080522;28;20446;-65
2021/04/08 03:39:31;;;;;;;15.32;3.72;;;1.80;99.90;;;;;;2080297;28;20030;-65
2021/04/08 03:40:32;;;;;;;12.35;3.97;;;1.70;99.90;;;;;;2080514;28;20640;-65
2021/04/08 03:41:38;;;;;;;18.50;3.85;;;1.70;99.90;;;;;;2079572;28;20040;-65
2021/04/08 03:42:39;;;;;;;11.95;4.10;;;1.70;99.90;;;;;;2078189;28;20018;-65
2021/04/08 03:43:41;;;;;;;10.95;3.95;;;1.70;99.90;;;;;;2072071;28;20026;-65
2021/04/08 03:44:42;;;;;;;8.05;3.65;;;1.70;99.90;;;;;;2078109;28;20045;-65
2021/04/08 03:45:43;;;;;;;7.88;3.90;;;1.70;99.90;;;;;;2072647;28;20018;-65
2021/04/08 03:46:46;;;;;;;12.57;3.40;;;1.70;99.90;;;;;;2080304;28;20053;-65
2021/04/08 03:47:48;;;;;;;9.75;4.07;;;1.60;99.90;;;;;;2079509;28;20456;-66
2021/04/08 03:48:50;;;;;;;7.50;3.72;;;1.60;99.90;;;;;;2081120;28;20022;-65
2021/04/08 03:49:51;;;;;;;;;;;1.60;99.90;;;;;;2082419;28;20029;-65
2021/04/08 03:50:53;;;;;;;11.10;4.25;;;1.60;99.90;;;;;;2081104;28;19951;-65
2021/04/08 03:51:54;;;;;;;8.77;3.95;;;1.60;99.90;;;;;;2082643;28;20025;-65
2021/04/08 03:52:56;;;;;;;13.30;4.90;;;1.60;99.90;;;;;;2076878;28;20053;-67
2021/04/08 03:53:57;;;;;;;8.07;3.75;;;1.60;99.90;;;;;;2081167;28;20268;-66
2021/04/08 03:54:58;;;;;;;12.18;4.05;;;1.50;99.90;;;;;;2081018;28;20056;-66
2021/04/08 03:55:59;;;;;;;8.68;4.07;;;1.50;99.90;;;;;;2087880;28;20072;-66
2021/04/08 03:57:02;;;;;;;10.32;4.20;;;1.50;99.90;;;;;;2083586;28;20110;-66
2021/04/08 03:58:06;;;;;;;12.63;4.60;;;1.50;99.90;;;;;;2075314;28;20476;-66
2021/04/08 03:59:08;;;;;;;7.93;3.67;;;1.50;99.90;;;;;;2075527;28;20029;-66
2021/04/08 04:00:11;;;;;;;14.23;3.90;;;1.50;99.90;;;;;;2076538;28;20656;-67
2021/04/08 04:01:15;;;;;;;11.32;4.40;;;1.50;99.90;;;;;;2081051;28;20029;-66
2021/04/08 04:02:17;;;;;;;10.90;4.05;;;1.50;99.90;;;;;;2081501;28;20540;-66
2021/04/08 04:03:18;;;;;;;9.68;4.55;;;1.50;99.90;;;;;;2074920;28;20079;-66
2021/04/08 04:04:20;;;;;;;13.35;4.32;;;1.50;99.90;;;;;;2074234;28;20436;-66
2021/04/08 04:05:22;;;;;;;;;;;1.50;99.90;;;;;;2077951;28;20032;-66
2021/04/08 04:06:23;;;;;;;11.93;4.32;;;1.40;99.90;;;;;;2082012;28;19912;-66
2021/04/08 04:07:24;;;;;;;12.25;4.53;;;1.50;99.90;;;;;;2081592;28;20412;-65
2021/04/08 04:08:25;;;;;;;10.48;4.82;;;1.40;99.90;;;;;;2075976;28;20040;-65
2021/04/08 04:09:27;;;;;;;10.98;5.13;;;1.40;99.90;;;;;;2075471;28;20650;-66
2021/04/08 04:10:27;;;;;;;9.48;4.53;;;1.40;99.90;;;;;;2077667;28;20025;-66
2021/04/08 04:11:31;;;;;;;12.75;4.15;;;1.30;99.90;;;;;;2080655;28;20376;-66
2021/04/08 04:12:38;;;;;;;15.25;5.13;;;1.30;99.90;;;;;;2080851;28;20389;-66
2021/04/08 04:13:40;;;;;;;10.80;4.68;;;1.30;99.90;;;;;;2081695;28;20112;-66
2021/04/08 04:14:41;;;;;;;;;;;1.30;99.90;;;;;;2082207;28;20552;-66
2021/04/08 04:15:46;;;;;;;11.02;4.43;;;1.30;99.90;;;;;;2081562;28;19912;-66
2021/04/08 04:16:49;;;;;;;12.00;4.60;;;1.20;99.90;;;;;;2081635;28;20127;-66
2021/04/08 04:17:51;;;;;;;11.57;5.72;;;1.20;99.90;;;;;;2076036;28;20500;-66
2021/04/08 04:18:51;;;;;;;13.40;4.93;;;1.20;99.90;;;;;;2076684;28;20648;-66
2021/04/08 04:19:52;;;;;;;10.98;5.13;;;1.20;99.90;;;;;;2077077;28;20033;-66
2021/04/08 04:20:53;;;;;;;11.65;5.07;;;1.10;99.90;;;;;;2079698;28;20047;-65
2021/04/08 04:21:54;;;;;;;8.88;4.85;;;1.20;99.90;;;;;;2081321;28;20661;-66
2021/04/08 04:22:54;;;;;;;14.65;4.90;;;1.10;99.90;;;;;;2080798;28;20022;-66
2021/04/08 04:23:56;;;;;;;13.68;5.38;;;1.10;99.90;;;;;;2076749;28;20035;-66
2021/04/08 04:24:56;;;;;;;15.27;5.30;;;1.00;99.90;;;;;;2073677;28;20547;-66
2021/04/08 04:25:57;;;;;;;11.65;4.80;;;1.00;99.90;;;;;;2079127;28;20314;-66
2021/04/08 04:26:58;;;;;;;12.40;4.80;;;1.00;99.90;;;;;;2081506;28;20060;-66
2021/04/08 04:27:59;;;;;;;13.10;5.57;;;1.00;99.90;;;;;;2081744;28;20029;-66
2021/04/08 04:29:00;;;;;;;24.45;4.88;;;1.00;99.90;;;;;;2081259;28;20021;-66
2021/04/08 04:30:01;;;;;;;12.35;4.68;;;1.00;99.90;;;;;;2081599;28;20017;-66
2021/04/08 04:31:01;;;;;;;13.93;5.05;;;0.90;99.90;;;;;;2081540;28;20129;-66
2021/04/08 04:32:03;;;;;;;8.23;4.57;;;0.90;99.90;;;;;;2079438;28;20539;-66
2021/04/08 04:33:03;;;;;;;20.27;5.60;;;0.90;99.90;;;;;;2072941;28;20476;-66
2021/04/08 04:34:05;;;;;;;12.80;5.00;;;0.90;99.90;;;;;;2075659;28;20029;-66
2021/04/08 04:35:07;;;;;;;9.82;4.93;;;0.90;99.90;;;;;;2073375;28;20536;-67
2021/04/08 04:36:08;;;;;;;13.73;5.05;;;0.90;99.90;;;;;;2077689;28;20048;-66
2021/04/08 04:37:10;;;;;;;15.18;4.72;;;0.80;99.90;;;;;;2073299;28;20481;-66
2021/04/08 04:38:10;;;;;;;10.82;4.63;;;0.90;99.90;;;;;;2080815;28;20184;-66
2021/04/08 04:39:11;;;;;;;15.25;5.03;;;0.80;99.90;;;;;;2075129;28;20040;-66
2021/04/08 04:40:12;;;;;;;13.50;4.80;;;0.80;99.90;;;;;;2081561;28;20045;-66
2021/04/08 04:41:13;;;;;;;17.65;5.05;;;0.80;99.90;;;;;;2081231;28;20104;-66
2021/04/08 04:42:14;;;;;;;13.75;5.43;;;0.80;99.90;;;;;;2080721;28;20602;-66
2021/04/08 04:43:14;;;;;;;14.43;5.68;;;0.80;99.90;;;;;;2080678;28;20030;-67
2021/04/08 04:44:15;;;;;;;12.07;5.30;;;0.80;99.90;;;;;;2079436;28;20089;-66
2021/04/08 04:45:16;;;;;;;11.57;5.20;;;0.80;99.90;;;;;;2081234;28;20026;-66
2021/04/08 04:46:17;;;;;;;12.40;5.40;;;0.80;99.90;;;;;;2080843;28;20666;-66
2021/04/08 04:47:17;;;;;;;15.43;5.45;;;0.80;99.90;;;;;;2073035;28;20112;-66
2021/04/08 04:48:18;;;;;;;17.42;5.05;;;0.80;99.90;;;;;;2081102;28;20496;-66
2021/04/08 04:49:19;;;;;;;13.85;5.93;;;0.80;99.90;;;;;;2077272;28;20024;-66
2021/04/08 04:50:20;;;;;;;13.30;7.53;;;0.70;99.90;;;;;;2072715;28;20101;-66
2021/04/08 04:51:20;;;;;;;18.67;6.53;;;0.70;99.90;;;;;;2075755;28;20021;-66
2021/04/08 04:52:21;;;;;;;14.50;5.32;;;0.70;99.90;;;;;;2072944;28;20057;-66
2021/04/08 04:53:22;;;;;;;11.43;4.93;;;0.70;99.90;;;;;;2080769;28;20036;-66
2021/04/08 04:54:22;;;;;;;10.45;5.35;;;0.60;99.90;;;;;;2078051;28;20053;-66
2021/04/08 04:55:23;;;;;;;14.77;5.50;;;0.60;99.90;;;;;;2079935;28;20022;-66
2021/04/08 04:56:24;;;;;;;10.25;5.10;;;0.50;99.90;;;;;;2085344;28;20676;-66
2021/04/08 04:57:24;;;;;;;8.77;4.68;;;0.50;99.90;;;;;;2080517;28;20033;-66
2021/04/08 04:58:25;;;;;;;16.25;5.18;;;0.50;99.90;;;;;;2080570;28;20084;-66
2021/04/08 04:59:26;;;;;;;14.27;5.32;;;0.50;99.90;;;;;;2080991;28;20095;-67
2021/04/08 05:00:27;;;;;;;11.55;5.55;;;0.50;99.90;;;;;;2080983;28;20397;-66
2021/04/08 05:01:28;;;;;;;15.10;5.20;;;0.50;99.90;;;;;;2080908;28;20053;-67
2021/04/08 05:02:28;;;;;;;12.23;5.38;;;0.50;99.90;;;;;;2081041;28;20097;-66
2021/04/08 05:03:29;;;;;;;9.20;5.03;;;0.50;99.90;;;;;;2078079;28;20579;-66
2021/04/08 05:04:30;;;;;;;11.95;5.25;;;0.50;99.90;;;;;;2072092;28;20429;-66
2021/04/08 05:05:30;;;;;;;16.95;6.80;;;0.60;99.90;;;;;;2078159;28;20036;-66
2021/04/08 05:06:31;;;;;;;15.35;6.68;;;0.60;99.90;;;;;;2074687;28;20064;-66
2021/04/08 05:07:32;;;;;;;16.88;6.82;;;0.60;99.90;;;;;;2081014;28;20025;-66
2021/04/08 05:08:32;;;;;;;14.23;5.85;;;0.60;99.90;;;;;;2080345;28;20045;-66
2021/04/08 05:09:33;;;;;;;14.95;5.78;;;0.60;99.90;;;;;;2074458;28;20026;-67
2021/04/08 05:10:34;;;;;;;17.60;6.43;;;0.60;99.90;;;;;;2073006;28;20076;-67
2021/04/08 05:11:34;;;;;;;14.73;6.53;;;0.60;99.90;;;;;;2074764;28;20084;-67
2021/04/08 05:12:35;;;;;;;17.23;6.75;;;0.60;99.90;;;;;;2080844;28;20053;-66
2021/04/08 05:13:36;;;;;;;15.52;6.63;;;0.60;99.90;;;;;;2080779;28;20029;-67
2021/04/08 05:14:36;;;;;;;13.60;6.68;;;0.50;99.90;;;;;;2081095;28;20469;-67
2021/04/08 05:15:37;;;;;;;14.85;6.40;;;0.50;99.90;;;;;;2080936;28;20476;-67
2021/04/08 05:16:38;;;;;;;19.75;6.50;;;0.50;99.90;;;;;;2081387;28;20022;-66
2021/04/08 05:17:38;;;;;;;18.48;7.68;;;0.50;99.90;;;;;;2080827;28;20033;-67
2021/04/08 05:18:39;;;;;;;13.63;6.13;;;0.50;99.90;;;;;;2076286;28;20025;-67
2021/04/08 05:19:40;;;;;;;17.80;6.30;;;0.50;99.90;;;;;;2072678;28;20045;-67
2021/04/08 05:20:40;;;;;;;15.05;6.28;;;0.50;99.90;;;;;;2076056;28;20106;-68
2021/04/08 05:21:41;;;;;;;18.70;5.95;;;0.50;99.90;;;;;;2077979;28;20030;-67
2021/04/08 05:22:42;;;;;;;14.68;5.60;;;0.40;99.90;;;;;;2073823;28;20018;-67
2021/04/08 05:23:42;;;;;;;14.52;6.15;;;0.40;99.90;;;;;;2073265;28;20022;-68
2021/04/08 05:24:43;;;;;;;11.38;6.07;;;0.40;99.90;;;;;;2072533;28;20025;-67
2021/04/08 05:25:44;;;;;;;14.80;5.38;;;0.40;99.90;;;;;;2076866;28;20080;-68
2021/04/08 05:26:46;;;;;;;11.38;5.70;;;0.40;99.90;;;;;;2080650;28;20017;-68
2021/04/08 05:27:46;;;;;;;14.57;7.03;;;0.30;99.90;;;;;;2074039;28;20064;-68
2021/04/08 05:28:47;;;;;;;11.10;6.03;;;0.40;99.90;;;;;;2073757;28;20076;-67
2021/04/08 05:29:47;;;;;;;15.40;7.05;;;0.40;99.90;;;;;;2074745;28;20064;-67
2021/04/08 05:30:48;;;;;;;15.10;7.13;;;0.40;99.90;;;;;;2075560;28;20021;-67